sensor_id;sensor_type;location;lat;lon;timestamp;pressure;altitude;pressure_sealevel;temperature;humidity
79138;BME280;68544;45.566;10.238;2023-09-30T13:48:26;100240.81;;;29.83;32.41
79138;BME280;68544;45.566;10.238;2023-09-30T13:50:51;100232.84;;;29.62;32.40
79138;BME280;68544;45.566;10.238;2023-09-30T13:53:17;100233.44;;;29.78;31.81
79138;BME280;68544;45.566;10.238;2023-09-30T13:55:42;100234.97;;;29.84;32.09
79138;BME280;68544;45.566;10.238;2023-09-30T13:58:07;100217.22;;;30.07;31.38
79138;BME280;68544;45.566;10.238;2023-09-30T14:00:33;100220.44;;;30.01;31.20
79138;BME280;68544;45.566;10.238;2023-09-30T14:03:00;100218.97;;;29.90;31.62
79138;BME280;68544;45.566;10.238;2023-09-30T14:05:25;60991.41;;;-142.84;100.00
79138;BME280;68544;45.566;10.238;2023-09-30T14:07:50;100207.00;;;29.89;31.30
79138;BME280;68544;45.566;10.238;2023-09-30T14:10:16;100207.22;;;29.79;31.25
79138;BME280;68544;45.566;10.238;2023-09-30T14:12:41;100214.03;;;29.73;31.29
79138;BME280;68544;45.566;10.238;2023-09-30T14:15:08;100202.63;;;29.56;31.68
79138;BME280;68544;45.566;10.238;2023-09-30T14:17:33;100199.38;;;29.95;31.18
79138;BME280;68544;45.566;10.238;2023-09-30T14:20:00;100198.66;;;30.03;31.46
79138;BME280;68544;45.566;10.238;2023-09-30T14:22:25;100190.28;;;29.89;31.56
79138;BME280;68544;45.566;10.238;2023-09-30T14:24:51;100197.88;;;29.43;31.67
79138;BME280;68544;45.566;10.238;2023-09-30T14:27:16;100202.72;;;29.51;31.75
79138;BME280;68544;45.566;10.238;2023-09-30T14:29:42;100197.88;;;29.70;31.49
79138;BME280;68544;45.566;10.238;2023-09-30T14:32:08;100199.06;;;29.83;31.24
79138;BME280;68544;45.566;10.238;2023-09-30T14:34:33;100204.59;;;29.55;32.26
79138;BME280;68544;45.566;10.238;2023-09-30T14:36:59;100201.50;;;29.71;31.71
79138;BME280;68544;45.566;10.238;2023-09-30T14:39:25;100200.78;;;29.65;32.25
79138;BME280;68544;45.566;10.238;2023-09-30T14:41:50;100189.25;;;29.72;32.30
79138;BME280;68544;45.566;10.238;2023-09-30T14:44:15;100198.84;;;29.65;32.03
79138;BME280;68544;45.566;10.238;2023-09-30T14:46:41;100192.34;;;29.56;31.91
79138;BME280;68544;45.566;10.238;2023-09-30T14:49:07;100194.41;;;29.64;31.90
79138;BME280;68544;45.566;10.238;2023-09-30T14:51:33;100177.47;;;29.47;32.22
79138;BME280;68544;45.566;10.238;2023-09-30T14:53:59;100175.44;;;29.53;32.40
79138;BME280;68544;45.566;10.238;2023-09-30T14:56:24;100182.00;;;29.43;32.32
79138;BME280;68544;45.566;10.238;2023-09-30T14:58:50;100183.66;;;29.44;32.60
79138;BME280;68544;45.566;10.238;2023-09-30T15:01:15;100175.59;;;29.29;32.76
79138;BME280;68544;45.566;10.238;2023-09-30T15:03:40;100184.66;;;29.35;32.85
79138;BME280;68544;45.566;10.238;2023-09-30T15:06:06;100183.66;;;29.12;32.62
79138;BME280;68544;45.566;10.238;2023-09-30T15:08:32;100177.88;;;29.27;33.69
79138;BME280;68544;45.566;10.238;2023-09-30T15:11:01;100178.38;;;29.29;33.06
79138;BME280;68544;45.566;10.238;2023-09-30T15:13:28;100189.59;;;29.24;33.03
79138;BME280;68544;45.566;10.238;2023-09-30T15:15:54;100187.44;;;29.21;33.06
79138;BME280;68544;45.566;10.238;2023-09-30T15:18:19;100194.28;;;29.10;34.03
79138;BME280;68544;45.566;10.238;2023-09-30T15:20:45;100198.34;;;28.99;33.33
79138;BME280;68544;45.566;10.238;2023-09-30T15:23:12;100197.31;;;28.95;33.67
79138;BME280;68544;45.566;10.238;2023-09-30T15:25:41;100207.22;;;29.01;34.11
79138;BME280;68544;45.566;10.238;2023-09-30T15:28:08;100200.81;;;29.01;34.33
79138;BME280;68544;45.566;10.238;2023-09-30T15:30:33;100210.00;;;29.01;34.02
79138;BME280;68544;45.566;10.238;2023-09-30T15:32:58;100201.75;;;28.96;33.62
79138;BME280;68544;45.566;10.238;2023-09-30T15:35:24;100203.78;;;28.90;33.98
79138;BME280;68544;45.566;10.238;2023-09-30T15:37:49;100204.53;;;28.96;33.64
79138;BME280;68544;45.566;10.238;2023-09-30T15:40:15;100199.75;;;28.83;33.79
79138;BME280;68544;45.566;10.238;2023-09-30T15:42:43;100208.53;;;28.71;34.93
79138;BME280;68544;45.566;10.238;2023-09-30T15:45:08;100199.91;;;28.73;36.05
79138;BME280;68544;45.566;10.238;2023-09-30T15:47:36;100205.72;;;28.53;37.79
79138;BME280;68544;45.566;10.238;2023-09-30T15:50:02;100202.84;;;28.21;39.14
79138;BME280;68544;45.566;10.238;2023-09-30T15:52:28;100202.41;;;28.13;39.63
79138;BME280;68544;45.566;10.238;2023-09-30T15:54:54;100207.72;;;27.86;40.62
79138;BME280;68544;45.566;10.238;2023-09-30T15:57:19;100191.91;;;27.63;41.64
79138;BME280;68544;45.566;10.238;2023-09-30T15:59:45;100200.22;;;27.63;42.07
79138;BME280;68544;45.566;10.238;2023-09-30T16:02:10;100203.97;;;27.72;42.00
79138;BME280;68544;45.566;10.238;2023-09-30T16:04:35;100207.53;;;27.78;41.61
79138;BME280;68544;45.566;10.238;2023-09-30T16:07:01;100204.34;;;27.66;41.62
79138;BME280;68544;45.566;10.238;2023-09-30T16:09:26;100201.94;;;27.59;42.14
79138;BME280;68544;45.566;10.238;2023-09-30T16:11:51;100202.63;;;27.46;42.57
79138;BME280;68544;45.566;10.238;2023-09-30T16:14:17;100202.00;;;27.49;42.18
79138;BME280;68544;45.566;10.238;2023-09-30T16:16:42;100209.81;;;27.47;42.43
79138;BME280;68544;45.566;10.238;2023-09-30T16:19:08;100216.31;;;27.38;42.65
79138;BME280;68544;45.566;10.238;2023-09-30T16:21:33;100210.09;;;27.17;43.16
79138;BME280;68544;45.566;10.238;2023-09-30T16:23:59;100221.59;;;27.00;43.25
79138;BME280;68544;45.566;10.238;2023-09-30T16:26:24;100217.16;;;26.99;43.53
79138;BME280;68544;45.566;10.238;2023-09-30T16:28:51;100217.50;;;26.93;43.38
79138;BME280;68544;45.566;10.238;2023-09-30T16:31:16;100212.00;;;26.88;43.49
79138;BME280;68544;45.566;10.238;2023-09-30T16:33:42;100204.56;;;26.83;43.72
79138;BME280;68544;45.566;10.238;2023-09-30T16:36:07;100205.53;;;26.58;44.67
79138;BME280;68544;45.566;10.238;2023-09-30T16:38:33;100207.81;;;26.51;44.70
79138;BME280;68544;45.566;10.238;2023-09-30T16:40:58;100204.88;;;26.33;45.14
79138;BME280;68544;45.566;10.238;2023-09-30T16:43:24;100204.03;;;26.32;44.88
79138;BME280;68544;45.566;10.238;2023-09-30T16:45:49;100204.03;;;26.32;44.26
79138;BME280;68544;45.566;10.238;2023-09-30T16:48:15;100209.56;;;26.32;44.59
79138;BME280;68544;45.566;10.238;2023-09-30T16:50:44;100209.56;;;26.32;44.37
79138;BME280;68544;45.566;10.238;2023-09-30T16:53:10;100211.81;;;26.30;44.52
79138;BME280;68544;45.566;10.238;2023-09-30T16:55:36;100214.56;;;26.35;44.19
79138;BME280;68544;45.566;10.238;2023-09-30T16:58:01;100212.38;;;26.27;44.97
79138;BME280;68544;45.566;10.238;2023-09-30T17:00:27;100227.28;;;26.31;44.64
79138;BME280;68544;45.566;10.238;2023-09-30T17:02:53;100229.78;;;26.33;44.92
79138;BME280;68544;45.566;10.238;2023-09-30T17:05:18;100232.88;;;26.21;44.71
79138;BME280;68544;45.566;10.238;2023-09-30T17:07:44;100235.72;;;26.01;45.29
79138;BME280;68544;45.566;10.238;2023-09-30T17:10:10;100240.16;;;26.12;45.02
79138;BME280;68544;45.566;10.238;2023-09-30T17:12:36;100255.72;;;25.73;45.80
79138;BME280;68544;45.566;10.238;2023-09-30T17:15:02;100240.81;;;25.74;45.60
79138;BME280;68544;45.566;10.238;2023-09-30T17:17:30;100252.47;;;25.51;45.86
79138;BME280;68544;45.566;10.238;2023-09-30T17:19:56;100256.31;;;25.65;45.67
79138;BME280;68544;45.566;10.238;2023-09-30T17:22:22;100253.53;;;25.65;45.54
79138;BME280;68544;45.566;10.238;2023-09-30T17:24:47;100254.06;;;25.82;45.63
79138;BME280;68544;45.566;10.238;2023-09-30T17:27:13;100259.06;;;25.65;46.20
79138;BME280;68544;45.566;10.238;2023-09-30T17:29:39;100266.81;;;25.58;46.31
79138;BME280;68544;45.566;10.238;2023-09-30T17:32:04;100275.13;;;25.48;46.51
79138;BME280;68544;45.566;10.238;2023-09-30T17:34:32;100265.72;;;25.34;47.09
79138;BME280;68544;45.566;10.238;2023-09-30T17:37:01;100287.31;;;25.42;46.81
79138;BME280;68544;45.566;10.238;2023-09-30T17:39:26;100278.97;;;25.37;47.24
79138;BME280;68544;45.566;10.238;2023-09-30T17:41:51;100284.81;;;25.30;47.97
79138;BME280;68544;45.566;10.238;2023-09-30T17:44:17;100283.94;;;25.35;47.06
79138;BME280;68544;45.566;10.238;2023-09-30T17:46:42;100289.22;;;25.36;46.58
79138;BME280;68544;45.566;10.238;2023-09-30T17:49:08;100292.81;;;25.32;46.82
79138;BME280;68544;45.566;10.238;2023-09-30T17:51:33;100297.78;;;25.35;46.61
79138;BME280;68544;45.566;10.238;2023-09-30T17:53:59;100297.25;;;25.28;46.83
79138;BME280;68544;45.566;10.238;2023-09-30T17:56:24;100298.34;;;25.22;46.62
79138;BME280;68544;45.566;10.238;2023-09-30T17:58:51;100307.16;;;25.03;46.89
79138;BME280;68544;45.566;10.238;2023-09-30T18:01:18;100303.28;;;24.99;46.94
79138;BME280;68544;45.566;10.238;2023-09-30T18:03:46;100313.25;;;25.05;47.51
79138;BME280;68544;45.566;10.238;2023-09-30T18:06:12;100317.09;;;24.89;47.84
79138;BME280;68544;45.566;10.238;2023-09-30T18:08:42;100314.59;;;24.93;48.19
79138;BME280;68544;45.566;10.238;2023-09-30T18:11:08;100316.56;;;25.02;48.21
79138;BME280;68544;45.566;10.238;2023-09-30T18:13:34;100317.13;;;25.09;47.90
79138;BME280;68544;45.566;10.238;2023-09-30T18:16:00;100320.94;;;24.88;49.44
79138;BME280;68544;45.566;10.238;2023-09-30T18:18:25;100321.50;;;24.85;49.58
79138;BME280;68544;45.566;10.238;2023-09-30T18:20:50;100321.31;;;24.35;51.40
79138;BME280;68544;45.566;10.238;2023-09-30T18:23:16;100323.53;;;24.33;51.51
79138;BME280;68544;45.566;10.238;2023-09-30T18:25:41;100318.00;;;24.38;51.33
79138;BME280;68544;45.566;10.238;2023-09-30T18:28:07;100328.03;;;24.59;50.51
79138;BME280;68544;45.566;10.238;2023-09-30T18:30:32;100333.75;;;24.43;50.96
79138;BME280;68544;45.566;10.238;2023-09-30T18:32:58;100335.47;;;24.54;50.70
79138;BME280;68544;45.566;10.238;2023-09-30T18:35:24;100342.13;;;24.68;50.44
79138;BME280;68544;45.566;10.238;2023-09-30T18:37:49;100347.38;;;24.69;50.12
79138;BME280;68544;45.566;10.238;2023-09-30T18:40:15;100349.44;;;24.32;51.58
79138;BME280;68544;45.566;10.238;2023-09-30T18:42:40;100342.53;;;24.24;51.31
79138;BME280;68544;45.566;10.238;2023-09-30T18:45:06;100362.13;;;23.86;52.52
79138;BME280;68544;45.566;10.238;2023-09-30T18:47:31;100361.97;;;24.03;52.03
79138;BME280;68544;45.566;10.238;2023-09-30T18:49:57;100357.63;;;24.12;51.81
79138;BME280;68544;45.566;10.238;2023-09-30T18:52:23;100359.84;;;24.10;51.80
79138;BME280;68544;45.566;10.238;2023-09-30T18:54:48;100368.13;;;24.15;51.54
79138;BME280;68544;45.566;10.238;2023-09-30T18:57:14;100362.19;;;23.96;51.75
79138;BME280;68544;45.566;10.238;2023-09-30T18:59:39;100364.31;;;23.84;52.64
79138;BME280;68544;45.566;10.238;2023-09-30T19:02:05;100364.78;;;24.08;52.04
79138;BME280;68544;45.566;10.238;2023-09-30T19:04:30;100360.22;;;23.92;52.35
79138;BME280;68544;45.566;10.238;2023-09-30T19:06:57;100354.78;;;24.02;52.00
79138;BME280;68544;45.566;10.238;2023-09-30T19:09:22;100363.41;;;23.74;52.43
79138;BME280;68544;45.566;10.238;2023-09-30T19:11:47;100361.84;;;23.83;52.24
79138;BME280;68544;45.566;10.238;2023-09-30T19:14:13;100362.72;;;23.57;52.73
79138;BME280;68544;45.566;10.238;2023-09-30T19:16:39;100370.34;;;23.81;52.28
79138;BME280;68544;45.566;10.238;2023-09-30T19:19:05;100363.47;;;23.79;52.02
79138;BME280;68544;45.566;10.238;2023-09-30T19:21:30;100368.66;;;23.38;53.15
79138;BME280;68544;45.566;10.238;2023-09-30T19:23:56;100367.41;;;23.56;52.81
79138;BME280;68544;45.566;10.238;2023-09-30T19:26:21;100369.34;;;23.56;52.68
79138;BME280;68544;45.566;10.238;2023-09-30T19:28:46;100367.72;;;23.60;52.77
79138;BME280;68544;45.566;10.238;2023-09-30T19:31:12;100363.25;;;23.53;52.66
79138;BME280;68544;45.566;10.238;2023-09-30T19:33:38;100370.94;;;23.51;52.79
79138;BME280;68544;45.566;10.238;2023-09-30T19:36:07;100372.31;;;23.22;53.39
79138;BME280;68544;45.566;10.238;2023-09-30T19:38:33;100370.69;;;23.26;53.42
79138;BME280;68544;45.566;10.238;2023-09-30T19:40:58;100372.22;;;23.12;53.81
79138;BME280;68544;45.566;10.238;2023-09-30T19:43:24;100376.03;;;23.33;53.37
79138;BME280;68544;45.566;10.238;2023-09-30T19:45:49;100381.97;;;23.25;54.18
79138;BME280;68544;45.566;10.238;2023-09-30T19:48:15;100382.81;;;23.25;53.74
79138;BME280;68544;45.566;10.238;2023-09-30T19:50:40;100376.75;;;23.28;53.63
79138;BME280;68544;45.566;10.238;2023-09-30T19:53:05;100380.09;;;23.30;53.80
79138;BME280;68544;45.566;10.238;2023-09-30T19:55:31;100379.34;;;23.35;53.38
79138;BME280;68544;45.566;10.238;2023-09-30T19:57:57;100381.28;;;23.34;53.38
79138;BME280;68544;45.566;10.238;2023-09-30T20:00:22;100386.53;;;23.36;53.53
79138;BME280;68544;45.566;10.238;2023-09-30T20:02:47;100387.91;;;23.12;54.28
79138;BME280;68544;45.566;10.238;2023-09-30T20:05:13;100386.66;;;22.98;54.84
79138;BME280;68544;45.566;10.238;2023-09-30T20:07:38;100381.53;;;22.85;55.22
79138;BME280;68544;45.566;10.238;2023-09-30T20:10:04;100385.13;;;22.85;55.10
79138;BME280;68544;45.566;10.238;2023-09-30T20:12:31;100390.94;;;23.10;54.11
79138;BME280;68544;45.566;10.238;2023-09-30T20:14:57;100394.34;;;23.22;54.03
79138;BME280;68544;45.566;10.238;2023-09-30T20:17:23;100396.22;;;23.17;54.32
79138;BME280;68544;45.566;10.238;2023-09-30T20:19:48;100391.56;;;23.17;54.15
79138;BME280;68544;45.566;10.238;2023-09-30T20:22:13;100399.13;;;23.05;54.43
79138;BME280;68544;45.566;10.238;2023-09-30T20:24:38;100391.66;;;23.01;54.39
79138;BME280;68544;45.566;10.238;2023-09-30T20:27:04;100395.22;;;23.01;54.27
79138;BME280;68544;45.566;10.238;2023-09-30T20:29:29;100393.31;;;23.02;53.91
79138;BME280;68544;45.566;10.238;2023-09-30T20:31:55;100402.88;;;22.94;54.12
79138;BME280;68544;45.566;10.238;2023-09-30T20:34:20;100402.91;;;22.99;54.16
79138;BME280;68544;45.566;10.238;2023-09-30T20:36:46;100390.34;;;22.82;54.59
79138;BME280;68544;45.566;10.238;2023-09-30T20:39:12;100398.78;;;22.75;54.94
79138;BME280;68544;45.566;10.238;2023-09-30T20:41:38;100404.84;;;22.55;55.58
79138;BME280;68544;45.566;10.238;2023-09-30T20:44:05;100397.56;;;22.66;55.38
79138;BME280;68544;45.566;10.238;2023-09-30T20:46:32;100407.81;;;22.70;55.33
79138;BME280;68544;45.566;10.238;2023-09-30T20:48:57;100413.94;;;22.18;57.03
79138;BME280;68544;45.566;10.238;2023-09-30T20:51:22;100414.63;;;22.25;57.05
79138;BME280;68544;45.566;10.238;2023-09-30T20:53:48;100416.63;;;22.29;57.04
79138;BME280;68544;45.566;10.238;2023-09-30T20:56:15;100425.75;;;22.35;57.08
79138;BME280;68544;45.566;10.238;2023-09-30T20:58:41;100418.69;;;22.22;57.12
79138;BME280;68544;45.566;10.238;2023-09-30T21:01:09;100423.31;;;22.17;57.60
79138;BME280;68544;45.566;10.238;2023-09-30T21:03:36;100415.25;;;22.32;57.11
79138;BME280;68544;45.566;10.238;2023-09-30T21:06:03;100415.00;;;22.55;56.28
79138;BME280;68544;45.566;10.238;2023-09-30T21:08:29;100427.13;;;22.16;57.40
79138;BME280;68544;45.566;10.238;2023-09-30T21:10:54;100419.19;;;22.19;57.12
79138;BME280;68544;45.566;10.238;2023-09-30T21:13:19;100424.50;;;22.26;56.97
79138;BME280;68544;45.566;10.238;2023-09-30T21:15:44;100424.59;;;22.31;56.85
79138;BME280;68544;45.566;10.238;2023-09-30T21:18:10;100430.16;;;22.36;56.71
79138;BME280;68544;45.566;10.238;2023-09-30T21:20:35;100432.41;;;22.39;56.54
79138;BME280;68544;45.566;10.238;2023-09-30T21:23:00;100434.72;;;22.47;56.04
79138;BME280;68544;45.566;10.238;2023-09-30T21:25:25;100438.25;;;22.04;57.69
79138;BME280;68544;45.566;10.238;2023-09-30T21:27:51;100435.09;;;22.34;56.51
79138;BME280;68544;45.566;10.238;2023-09-30T21:30:16;100431.44;;;22.28;56.81
79138;BME280;68544;45.566;10.238;2023-09-30T21:32:42;100428.00;;;22.38;56.17
79138;BME280;68544;45.566;10.238;2023-09-30T21:35:07;100428.16;;;22.48;56.08
79138;BME280;68544;45.566;10.238;2023-09-30T21:37:32;100448.78;;;22.29;56.52
79138;BME280;68544;45.566;10.238;2023-09-30T21:39:59;100435.81;;;22.08;57.22
79138;BME280;68544;45.566;10.238;2023-09-30T21:42:24;100436.78;;;22.18;56.92
79138;BME280;68544;45.566;10.238;2023-09-30T21:44:50;100436.19;;;22.33;56.36
79138;BME280;68544;45.566;10.238;2023-09-30T21:47:16;100438.63;;;22.13;56.84
79138;BME280;68544;45.566;10.238;2023-09-30T21:49:42;100441.31;;;22.08;56.93
79138;BME280;68544;45.566;10.238;2023-09-30T21:52:07;100440.06;;;21.98;57.35
79138;BME280;68544;45.566;10.238;2023-09-30T21:54:32;100437.31;;;21.98;57.37
79138;BME280;68544;45.566;10.238;2023-09-30T21:56:58;100444.66;;;22.10;57.05
79138;BME280;68544;45.566;10.238;2023-09-30T21:59:23;100436.16;;;21.94;57.14
79138;BME280;68544;45.566;10.238;2023-09-30T22:01:48;100442.47;;;21.78;57.98
79138;BME280;68544;45.566;10.238;2023-09-30T22:04:14;100443.81;;;21.92;57.41
79138;BME280;68544;45.566;10.238;2023-09-30T22:06:42;100442.91;;;22.04;56.90
79138;BME280;68544;45.566;10.238;2023-09-30T22:09:07;100446.28;;;22.11;56.64
79138;BME280;68544;45.566;10.238;2023-09-30T22:11:34;100440.91;;;21.82;57.39
79138;BME280;68544;45.566;10.238;2023-09-30T22:14:00;100444.22;;;22.01;56.96
79138;BME280;68544;45.566;10.238;2023-09-30T22:16:28;100448.97;;;22.06;56.46
79138;BME280;68544;45.566;10.238;2023-09-30T22:18:56;100453.19;;;21.63;57.83
79138;BME280;68544;45.566;10.238;2023-09-30T22:21:22;100451.44;;;21.57;58.08
79138;BME280;68544;45.566;10.238;2023-09-30T22:23:47;100451.06;;;21.82;57.38
79138;BME280;68544;45.566;10.238;2023-09-30T22:26:13;100456.47;;;21.32;58.58
79138;BME280;68544;45.566;10.238;2023-09-30T22:28:38;100452.75;;;21.38;58.65
79138;BME280;68544;45.566;10.238;2023-09-30T22:31:03;100455.53;;;21.71;57.37
79138;BME280;68544;45.566;10.238;2023-09-30T22:33:30;100449.53;;;21.58;57.65
79138;BME280;68544;45.566;10.238;2023-09-30T22:35:55;100454.66;;;21.54;57.87
79138;BME280;68544;45.566;10.238;2023-09-30T22:38:21;100457.72;;;21.41;58.34
79138;BME280;68544;45.566;10.238;2023-09-30T22:40:46;100456.41;;;21.60;57.75
79138;BME280;68544;45.566;10.238;2023-09-30T22:43:12;100456.41;;;21.60;57.44
79138;BME280;68544;45.566;10.238;2023-09-30T22:45:38;100459.28;;;21.65;57.36
79138;BME280;68544;45.566;10.238;2023-09-30T22:48:03;100466.09;;;21.79;56.81
79138;BME280;68544;45.566;10.238;2023-09-30T22:50:31;100463.50;;;21.84;56.62
79138;BME280;68544;45.566;10.238;2023-09-30T22:52:57;100466.25;;;21.84;56.60
79138;BME280;68544;45.566;10.238;2023-09-30T22:55:23;100455.91;;;21.91;56.22
79138;BME280;68544;45.566;10.238;2023-09-30T22:57:49;100460.31;;;21.92;56.35
79138;BME280;68544;45.566;10.238;2023-09-30T23:00:16;100444.09;;;21.79;56.39
79138;BME280;68544;45.566;10.238;2023-09-30T23:02:45;100453.03;;;21.53;57.40
79138;BME280;68544;45.566;10.238;2023-09-30T23:05:11;100445.00;;;21.52;57.26
79138;BME280;68544;45.566;10.238;2023-09-30T23:07:46;100452.03;;;21.76;56.70
79138;BME280;68544;45.566;10.238;2023-09-30T23:10:16;100456.41;;;21.44;57.54
79138;BME280;68544;45.566;10.238;2023-09-30T23:12:42;100447.22;;;21.21;58.88
79138;BME280;68544;45.566;10.238;2023-09-30T23:15:13;100466.06;;;21.46;57.78
79138;BME280;68544;45.566;10.238;2023-09-30T23:17:40;100466.06;;;21.46;57.97
79138;BME280;68544;45.566;10.238;2023-09-30T23:20:09;100467.06;;;21.12;59.16
79138;BME280;68544;45.566;10.238;2023-09-30T23:22:39;100469.84;;;21.29;58.31
79138;BME280;68544;45.566;10.238;2023-09-30T23:25:11;100470.31;;;21.09;58.69
79138;BME280;68544;45.566;10.238;2023-09-30T23:27:41;100469.59;;;21.13;58.82
79138;BME280;68544;45.566;10.238;2023-09-30T23:30:08;100469.38;;;21.32;58.20
79138;BME280;68544;45.566;10.238;2023-09-30T23:32:43;100472.00;;;21.27;58.08
79138;BME280;68544;45.566;10.238;2023-09-30T23:35:10;100467.88;;;21.24;58.08
79138;BME280;68544;45.566;10.238;2023-09-30T23:37:36;100472.53;;;21.23;58.10
79138;BME280;68544;45.566;10.238;2023-09-30T23:40:02;100471.28;;;21.31;57.93
79138;BME280;68544;45.566;10.238;2023-09-30T23:42:32;100468.19;;;21.28;57.71
79138;BME280;68544;45.566;10.238;2023-09-30T23:44:57;100467.16;;;21.17;58.37
79138;BME280;68544;45.566;10.238;2023-09-30T23:47:23;100470.22;;;20.92;59.29
79138;BME280;68544;45.566;10.238;2023-09-30T23:49:49;100470.06;;;21.10;57.85
79138;BME280;68544;45.566;10.238;2023-09-30T23:52:14;100466.38;;;21.33;56.84
79138;BME280;68544;45.566;10.238;2023-09-30T23:54:39;100458.22;;;21.38;56.60
79138;BME280;68544;45.566;10.238;2023-09-30T23:57:05;100459.44;;;20.91;57.34
79138;BME280;68544;45.566;10.238;2023-09-30T23:59:33;100458.91;;;20.66;58.42
